Flight Track Log - Related Links

Times and Time Zones

All times are in EDT time to prevent confusion due to time zone crossing. See the DAL6234 flight status page for this flight to view local times or setup timezone preferences in your user account.

Time Position Orientation Groundspeed Altitude Reporting Facility
EDT Latitude Longitude Course Direction KTS MPH feet Rate Location/Type
Fri 04:26:24 PM 40.7667 -73.8500 131° Southeast 153 176 1,400  Level New York TRACON
Fri 04:27:25 PM 40.7333 -73.8000 131° Southeast 231 266 4,200 2,777 Climbing New York TRACON
Fri 04:28:25 PM 40.7833 -73.7333 45° Northeast 279 321 7,000 2,550 Climbing New York TRACON
Fri 04:29:25 PM 40.8500 -73.7333 360° North 293 337 9,300 2,521 Climbing New York TRACON
Fri 04:30:24 PM 40.9000 -73.8000 315° West 272 313 12,000 2,000 Climbing New York TRACON
Fri 04:31:25 PM 40.9500 -73.8833 308° West 298 343 13,300 1,339 Climbing New York TRACON
Fri 04:32:25 PM 41.0000 -73.9833 304° West 335 386 14,700 1,368 Climbing New York TRACON
Fri 04:33:19 PM 41.0333 -74.1000 291° West 353 406 15,900 1,043 Climbing New York TRACON
Fri 04:35:29 PM 41.1556 -74.3425 304° West 393 452 17,900 1,181 Climbing New York Center
Fri 04:36:27 PM 41.2289 -74.4650 309° West 398 458 19,600 1,563 Climbing New York Center
Fri 04:37:28 PM 41.2958 -74.5819 307° West 398 458 21,000 1,180 Climbing New York Center
Fri 04:38:29 PM 41.3647 -74.7072 306° West 403 464 22,000 492 Climbing New York Center
Fri 04:39:30 PM 41.4333 -74.8331 306° West 416 479 22,000  Level New York Center
Fri 04:40:29 PM 41.5081 -74.9622 308° West 427 491 22,000  Level New York Center
Fri 04:41:29 PM 41.5806 -75.0861 308° West 427 491 22,000  Level New York Center
Fri 04:42:30 PM 41.6508 -75.2128 307° West 427 491 22,000  Level New York Center
Fri 04:43:30 PM 41.7192 -75.3339 307° West 427 491 22,000  Level New York Center
Fri 04:44:27 PM 41.7911 -75.4614 307° West 427 491 22,000  Level New York Center
Fri 04:45:28 PM 41.8608 -75.5917 306° West 427 491 22,000  Level New York Center
Fri 04:46:28 PM 41.9308 -75.7167 307° West 427 491 22,000 -393 Level New York Center
Fri 04:47:30 PM 41.9983 -75.8417 306° West 422 486 21,200 -1,328 Descending New York Center
Fri 04:48:30 PM 42.0639 -75.9639 306° West 415 478 19,300 -2,085 Descending New York Center
Fri 04:49:28 PM 42.1294 -76.0808 307° West 410 472 17,100 -2,017 Descending New York Center
Fri 04:50:29 PM 42.2286 -76.1450 334° Northwest 393 452 15,300 -1,902 Descending New York Center
Fri 04:52:12 PM 42.4292 -76.1592 357° North 402 463 11,900 -1,623 Descending Boston Center
Fri 04:53:08 PM 42.5181 -76.1842 348° North 381 438 11,000 -462 Descending Boston Center
Fri 04:54:09 PM 42.6117 -76.2519 332° Northwest 342 394 11,000  Level Boston Center
Fri 04:55:04 PM 42.6869 -76.3017 334° Northwest 348 400 11,000 -776 Level Boston Center
Fri 04:56:05 PM 42.7642 -76.3603 331° Northwest 286 329 9,500 -1,736 Descending Boston Center
Fri 04:57:05 PM 42.8336 -76.4044 335° Northwest 264 304 7,500 -1,983 Descending Boston Center
Fri 04:58:06 PM 42.9033 -76.4372 341° North 264 304 5,500 -2,033 Descending Boston Center
Fri 04:59:06 PM 42.9747 -76.4278 North 260 299 3,400 -1,537 Descending Boston Center
Fri 05:00:07 PM 43.0339 -76.4031 17° North 215 247 2,400 -496 Descending Boston Center
Fri 05:01:07 PM 43.0811 -76.3664 30° Northeast 192 221 2,400  Level Boston Center
Fri 05:02:07 PM 43.1019 -76.2994 67° East 188 216 2,400 -157 Level Boston Center
Fri 05:03:02 PM 43.1039 -76.2425 87° East 166 191 2,100 -327 Descending Boston Center

Login

Don't have an account? Register now (free) for customized features, flight alerts, and more!